Ruby Junction, Minnesota
Current Conditions -  °F | °C
As of 11:53 PM on Thursday 30 Oct 2014 (Local Time) from KHIB Reporting Station
Broken Clouds Broken Clouds  
Wind Chill: 16°   Ceiling: 3800
Heat Index: 28°   Visibility: 10mi
Dew Point: 14°   Wind: 16mph
Humidity: 56%   Direction: 10°N
Pressure: 30.39"   Gusts: 28mph
Location:  47.4158°N, 93.0053°W
Report Text: KHIB 310453Z AUTO 01014G24KT 10SM BKN038 M02/M10 A3039 RMK AO2 SLP309 T10221100
Loading
Personal Weather Stations






























Interactive Weather Map
Tropical Storm Tracking
New forecast layout! Learn more

10-Day Weather Forecast

Advertisements
Track Severe Weather on mobile